createdAt,value
2023-05-08T00:00:05.496Z,0.25
2023-05-08T00:05:27.294Z,0.20
2023-05-08T00:10:49.262Z,0.20
2023-05-08T00:16:12.037Z,0.30
2023-05-08T00:21:34.131Z,0.15
2023-05-08T00:26:56.117Z,0.20
2023-05-08T00:32:17.986Z,0.10
2023-05-08T00:37:41.419Z,0.20
2023-05-08T00:43:03.283Z,0.10
2023-05-08T00:48:25.757Z,0.17
2023-05-08T00:53:47.798Z,0.20
2023-05-08T00:59:11.666Z,0.10
2023-05-08T01:04:35.098Z,0.10
2023-05-08T01:09:56.983Z,0.20
2023-05-08T01:15:31.922Z,0.17
2023-05-08T01:20:59.848Z,0.10
2023-05-08T01:26:45.844Z,0.10
2023-05-08T01:32:30.286Z,0.17
2023-05-08T01:38:07.010Z,0.10
2023-05-08T01:43:40.933Z,0.30
2023-05-08T01:49:09.862Z,0.20
2023-05-08T01:54:39.417Z,0.05
2023-05-08T02:00:04.314Z,0.20
2023-05-08T02:05:28.728Z,0.20
2023-05-08T02:10:52.093Z,0.25
2023-05-08T02:16:15.358Z,0.50
2023-05-08T02:21:39.315Z,0.50
2023-05-08T02:27:01.875Z,0.57
2023-05-08T02:32:26.536Z,0.80
2023-05-08T02:37:56.225Z,0.60
2023-05-08T02:43:18.108Z,0.93
2023-05-08T02:49:53.718Z,1.00
2023-05-08T02:55:21.214Z,1.00
2023-05-08T03:00:51.385Z,0.80
2023-05-08T03:06:17.290Z,0.70
2023-05-08T03:11:45.182Z,0.73
2023-05-08T03:17:09.407Z,0.90
2023-05-08T03:22:34.918Z,1.35
2023-05-08T03:33:22.052Z,2.75
2023-05-08T03:38:44.364Z,3.10
2023-05-08T03:44:07.946Z,1.63
2023-05-08T03:49:30.697Z,1.83
2023-05-08T03:54:52.680Z,1.15
2023-05-08T04:00:45.859Z,0.90
2023-05-08T04:06:14.654Z,1.02
2023-05-08T04:11:53.983Z,0.98
2023-05-08T04:17:22.819Z,1.38
2023-05-08T04:22:46.511Z,0.88
2023-05-08T04:28:09.336Z,0.80
2023-05-08T04:33:31.473Z,0.70
2023-05-08T04:38:53.444Z,1.48
2023-05-08T04:44:15.264Z,0.85
2023-05-08T04:49:37.138Z,1.50
2023-05-08T04:54:58.905Z,1.35
2023-05-08T05:00:21.021Z,1.40
2023-05-08T05:05:42.880Z,1.25
2023-05-08T05:11:04.690Z,2.08
2023-05-08T05:16:27.660Z,2.83
2023-05-08T05:21:49.646Z,3.13
2023-05-08T05:27:11.457Z,3.47
2023-05-08T05:32:33.344Z,5.53
2023-05-08T05:37:55.339Z,20.40
2023-05-08T05:43:17.150Z,28.55
2023-05-08T05:48:39.061Z,32.63
2023-05-08T05:54:00.953Z,28.55
2023-05-08T05:59:22.833Z,30.48
2023-05-08T06:04:44.576Z,25.02
2023-05-08T06:10:07.092Z,22.48
2023-05-08T06:15:29.096Z,20.67
2023-05-08T06:20:58.568Z,18.65
2023-05-08T06:26:23.327Z,17.27
2023-05-08T06:31:45.460Z,15.33
2023-05-08T06:37:07.288Z,14.45
2023-05-08T06:42:29.218Z,13.30
2023-05-08T06:47:51.277Z,11.10
2023-05-08T06:53:13.343Z,9.77
2023-05-08T06:58:36.015Z,9.45
2023-05-08T07:03:57.963Z,8.38
2023-05-08T07:09:19.762Z,7.53
2023-05-08T07:14:41.640Z,7.20
2023-05-08T07:20:04.128Z,5.72
2023-05-08T07:25:25.995Z,6.28
2023-05-08T07:30:47.979Z,5.70
2023-05-08T07:36:09.856Z,5.10
2023-05-08T07:41:33.130Z,5.32
2023-05-08T07:46:54.994Z,4.50
2023-05-08T07:52:16.973Z,3.78
2023-05-08T07:57:41.848Z,2.63
2023-05-08T08:03:03.937Z,3.00
2023-05-08T08:08:25.909Z,2.70
2023-05-08T08:13:47.896Z,2.80
2023-05-08T08:19:10.989Z,2.67
2023-05-08T08:24:32.977Z,5.55
2023-05-08T08:30:08.259Z,6.32
2023-05-08T08:35:36.546Z,4.90
2023-05-08T08:40:59.224Z,4.28
2023-05-08T08:46:25.638Z,4.03
2023-05-08T08:51:52.908Z,3.08
2023-05-08T08:57:15.685Z,3.35
2023-05-08T09:02:37.835Z,2.92
2023-05-08T09:08:00.140Z,2.55
2023-05-08T09:13:22.575Z,1.95
2023-05-08T09:18:44.795Z,2.42
2023-05-08T09:24:06.953Z,2.22
2023-05-08T09:29:28.719Z,2.40
2023-05-08T09:34:53.940Z,2.60
2023-05-08T09:40:18.931Z,2.33
2023-05-08T09:45:41.754Z,2.20
2023-05-08T09:51:07.379Z,2.30
2023-05-08T09:56:39.942Z,2.80
2023-05-08T10:02:11.056Z,2.97
2023-05-08T10:07:38.973Z,2.90
2023-05-08T10:13:00.816Z,3.00
2023-05-08T10:18:29.140Z,2.53
2023-05-08T10:23:52.799Z,2.90
2023-05-08T10:29:21.194Z,4.15
2023-05-08T10:34:46.988Z,5.45
2023-05-08T10:40:10.171Z,5.40
2023-05-08T10:45:33.129Z,5.68
2023-05-08T10:51:28.233Z,5.70
2023-05-08T10:56:50.059Z,5.10
2023-05-08T11:02:11.986Z,5.40
2023-05-08T11:07:59.556Z,6.13
2023-05-08T11:13:29.167Z,5.47
2023-05-08T11:19:20.401Z,5.60
2023-05-08T11:25:05.447Z,5.63
2023-05-08T11:30:33.137Z,5.18
2023-05-08T11:36:19.424Z,5.70
2023-05-08T11:41:41.743Z,5.55
2023-05-08T11:47:03.889Z,4.95
2023-05-08T11:52:25.783Z,5.53
2023-05-08T11:57:47.593Z,5.15
2023-05-08T12:03:13.557Z,4.80
2023-05-08T12:08:39.372Z,5.53
2023-05-08T12:14:01.329Z,5.28
2023-05-08T12:19:23.187Z,5.22
2023-05-08T12:24:45.149Z,4.93
2023-05-08T12:30:09.870Z,5.13
2023-05-08T12:35:33.061Z,5.77
2023-05-08T12:40:58.526Z,5.30
2023-05-08T12:51:46.610Z,4.72
2023-05-08T12:57:12.979Z,5.20
2023-05-08T13:02:39.330Z,5.15
2023-05-08T13:08:11.485Z,5.47
2023-05-08T13:13:36.576Z,3.90
2023-05-08T13:18:58.408Z,4.90
2023-05-08T13:24:20.292Z,4.15
2023-05-08T13:29:42.287Z,4.70
2023-05-08T13:35:04.530Z,4.85
2023-05-08T13:40:26.690Z,4.18
2023-05-08T13:45:51.638Z,4.63
2023-05-08T13:51:13.574Z,4.32
2023-05-08T13:56:35.660Z,3.83
2023-05-08T14:01:57.490Z,4.10
2023-05-08T14:07:19.585Z,3.50
2023-05-08T14:12:41.460Z,3.50
2023-05-08T14:18:03.302Z,3.50
2023-05-08T14:23:25.172Z,3.28
2023-05-08T14:28:47.025Z,3.75
2023-05-08T14:34:08.852Z,3.55
2023-05-08T14:39:30.648Z,3.22
2023-05-08T14:44:52.546Z,3.63
2023-05-08T14:50:14.386Z,3.85
2023-05-08T14:55:36.868Z,3.67
2023-05-08T15:00:59.038Z,3.97
2023-05-08T15:06:22.336Z,3.65
2023-05-08T15:11:44.663Z,3.17
2023-05-08T15:17:06.455Z,3.78
2023-05-08T15:22:28.429Z,3.47
2023-05-08T15:27:52.974Z,4.18
2023-05-08T15:33:15.015Z,3.87
2023-05-08T15:38:36.847Z,4.15
2023-05-08T15:43:58.736Z,4.38
2023-05-08T15:49:25.937Z,3.88
2023-05-08T15:54:48.255Z,4.07
2023-05-08T16:00:10.847Z,3.90
2023-05-08T16:05:32.637Z,3.50
2023-05-08T16:10:54.724Z,3.38
2023-05-08T16:16:16.657Z,2.97
2023-05-08T16:21:38.677Z,3.08
2023-05-08T16:27:00.613Z,2.60
2023-05-08T16:32:22.386Z,2.70
2023-05-08T16:37:44.307Z,2.53
2023-05-08T16:43:06.122Z,2.33
2023-05-08T16:48:29.170Z,2.10
2023-05-08T16:53:51.023Z,2.97
2023-05-08T16:59:12.833Z,2.10
2023-05-08T17:04:34.659Z,2.15
2023-05-08T17:09:59.189Z,2.08
2023-05-08T17:15:21.207Z,1.77
2023-05-08T17:20:43.150Z,1.38
2023-05-08T17:26:05.021Z,1.77
2023-05-08T17:31:27.988Z,1.45
2023-05-08T17:36:50.288Z,1.38
2023-05-08T17:42:12.096Z,1.38
2023-05-08T17:47:33.998Z,1.48
2023-05-08T17:52:55.873Z,1.70
2023-05-08T17:58:17.614Z,1.45
2023-05-08T18:03:39.479Z,1.80
2023-05-08T18:09:01.329Z,1.42
2023-05-08T18:14:23.078Z,1.70
2023-05-08T18:19:47.625Z,1.83
2023-05-08T18:25:09.587Z,1.67
2023-05-08T18:30:31.840Z,1.38
2023-05-08T18:35:53.669Z,1.90
2023-05-08T18:41:15.578Z,2.53
2023-05-08T18:46:37.506Z,2.90
2023-05-08T18:51:59.567Z,2.60
2023-05-08T18:57:21.385Z,2.50
2023-05-08T19:02:43.295Z,2.85
2023-05-08T19:08:05.307Z,2.00
2023-05-08T19:13:27.324Z,3.00
2023-05-08T19:18:49.272Z,3.00
2023-05-08T19:24:11.107Z,2.38
2023-05-08T19:29:35.276Z,2.20
2023-05-08T19:34:57.784Z,2.58
2023-05-08T19:40:19.672Z,1.98
2023-05-08T19:45:41.724Z,2.17
2023-05-08T19:51:07.639Z,2.10
2023-05-08T19:56:29.455Z,2.35
2023-05-08T20:01:51.316Z,3.17
2023-05-08T20:07:13.126Z,2.17
2023-05-08T20:12:34.980Z,2.60
2023-05-08T20:17:56.899Z,2.25
2023-05-08T20:23:18.856Z,2.58
2023-05-08T20:28:40.933Z,2.42
2023-05-08T20:34:02.683Z,2.25
2023-05-08T20:39:24.489Z,2.10
2023-05-08T20:44:46.317Z,2.10
2023-05-08T20:50:08.577Z,2.03
2023-05-08T20:55:30.448Z,2.13
2023-05-08T21:00:52.325Z,2.10
2023-05-08T21:06:14.151Z,2.47
2023-05-08T21:11:36.314Z,2.38
2023-05-08T21:16:58.147Z,1.70
2023-05-08T21:22:20.152Z,1.65
2023-05-08T21:27:45.069Z,1.45
2023-05-08T21:33:07.030Z,1.90
2023-05-08T21:38:29.016Z,2.20
2023-05-08T21:43:50.945Z,1.60
2023-05-08T21:49:13.046Z,1.98
2023-05-08T21:54:34.836Z,1.45
2023-05-08T21:59:56.888Z,1.70
2023-05-08T22:05:19.780Z,1.60
2023-05-08T22:10:44.379Z,1.77
2023-05-08T22:16:06.832Z,1.50
2023-05-08T22:21:30.275Z,1.42
2023-05-08T22:26:52.085Z,1.40
2023-05-08T22:32:14.436Z,1.55
2023-05-08T22:37:36.956Z,1.50
2023-05-08T22:42:59.411Z,1.40
2023-05-08T22:48:21.755Z,1.58
2023-05-08T22:53:43.613Z,1.67
2023-05-08T22:59:06.143Z,1.30
2023-05-08T23:04:28.015Z,1.08
2023-05-08T23:09:49.859Z,1.05
2023-05-08T23:15:12.760Z,0.85
2023-05-08T23:20:34.720Z,0.93
2023-05-08T23:26:01.160Z,1.10
2023-05-08T23:31:23.138Z,1.23
2023-05-08T23:36:44.993Z,1.00
2023-05-08T23:42:07.794Z,0.88
2023-05-08T23:47:29.595Z,0.88
2023-05-08T23:52:51.472Z,0.80
2023-05-08T23:58:13.223Z,0.80
